createdAt,value
2022-08-17T00:00:43.901Z,99721.19
2022-08-17T00:03:13.552Z,99723.88
2022-08-17T00:05:44.776Z,99719.41
2022-08-17T00:08:14.406Z,99724.16
2022-08-17T00:10:43.086Z,99723.56
2022-08-17T00:13:16.175Z,99720.88
2022-08-17T00:15:47.088Z,99711.59
2022-08-17T00:19:01.196Z,99714.91
2022-08-17T00:21:10.533Z,99723.56
2022-08-17T00:23:47.788Z,99722.69
2022-08-17T00:26:43.123Z,99728.50
2022-08-17T00:29:07.609Z,99728.94
2022-08-17T00:31:37.791Z,99728.94
2022-08-17T00:34:08.891Z,99722.34
2022-08-17T00:36:38.021Z,99719.06
2022-08-17T00:39:06.130Z,99714.94
2022-08-17T00:41:35.910Z,99717.84
2022-08-17T00:44:06.569Z,99724.44
2022-08-17T00:46:39.358Z,99721.75
2022-08-17T00:49:08.917Z,99718.84
2022-08-17T00:51:41.543Z,99726.09
2022-08-17T00:54:21.742Z,99721.75
2022-08-17T00:56:55.143Z,99721.75
2022-08-17T00:59:27.204Z,99714.72
2022-08-17T01:01:56.935Z,99708.75
2022-08-17T01:04:26.900Z,99716.19
2022-08-17T01:06:57.930Z,99720.09
2022-08-17T01:09:27.006Z,99711.00
2022-08-17T01:11:55.052Z,99719.72
2022-08-17T01:14:25.493Z,99712.91
2022-08-17T01:16:57.371Z,99707.31
2022-08-17T01:19:28.920Z,99713.06
2022-08-17T01:22:04.600Z,99715.59
2022-08-17T01:24:35.279Z,99705.88
2022-08-17T01:27:10.272Z,99708.56
2022-08-17T01:29:42.608Z,99704.44
2022-08-17T01:32:11.429Z,99700.13
2022-08-17T01:34:43.621Z,99703.59
2022-08-17T01:37:19.906Z,99694.72
2022-08-17T01:39:53.877Z,99700.13
2022-08-17T01:42:27.837Z,99690.16
2022-08-17T01:45:00.128Z,99692.25
2022-08-17T01:47:28.722Z,99688.91
2022-08-17T01:49:59.465Z,99687.91
2022-08-17T01:52:27.694Z,99687.06
2022-08-17T01:54:58.087Z,99685.63
2022-08-17T01:57:26.425Z,99691.81
2022-08-17T01:59:55.184Z,99684.44
2022-08-17T02:02:30.301Z,99682.31
2022-08-17T02:04:59.965Z,99681.50
2022-08-17T02:07:28.333Z,99677.13
2022-08-17T02:09:58.184Z,99681.50
2022-08-17T02:12:37.820Z,99663.91
2022-08-17T02:15:09.638Z,99675.25
2022-08-17T02:17:38.457Z,99674.88
2022-08-17T02:20:08.369Z,99657.06
2022-08-17T02:22:37.622Z,99660.38
2022-08-17T02:25:11.077Z,99658.75
2022-08-17T02:27:40.627Z,99664.72
2022-08-17T02:30:59.195Z,99657.47
2022-08-17T02:33:00.580Z,99665.75
2022-08-17T02:35:32.760Z,99673.66
2022-08-17T02:38:01.507Z,99672.00
2022-08-17T02:40:36.618Z,99673.06
2022-08-17T02:43:05.968Z,99669.31
2022-08-17T02:45:34.683Z,99668.53
2022-08-17T02:48:03.097Z,99670.63
2022-08-17T02:50:31.512Z,99682.41
2022-08-17T02:53:02.356Z,99677.44
2022-08-17T02:55:35.917Z,99677.22
2022-08-17T02:58:04.802Z,99680.97
2022-08-17T03:00:36.419Z,99681.97
2022-08-17T03:03:06.930Z,99675.75
2022-08-17T03:05:37.265Z,99680.50
2022-08-17T03:08:06.792Z,99675.59
2022-08-17T03:10:41.710Z,99686.56
2022-08-17T03:13:10.139Z,99687.38
2022-08-17T03:15:40.768Z,99689.47
2022-08-17T03:18:19.204Z,99693.59
2022-08-17T03:20:55.373Z,99691.31
2022-08-17T03:23:25.264Z,99693.16
2022-08-17T03:25:55.905Z,99685.72
2022-08-17T03:28:25.886Z,99700.00
2022-08-17T03:30:54.462Z,99688.63
2022-08-17T03:33:23.251Z,99693.78
2022-08-17T03:35:51.680Z,99694.84
2022-08-17T03:38:20.317Z,99697.31
2022-08-17T03:40:57.810Z,99694.41
2022-08-17T03:43:32.277Z,99691.09
2022-08-17T03:46:34.214Z,99696.28
2022-08-17T03:49:37.659Z,99694.78
2022-08-17T03:52:26.149Z,99686.50
2022-08-17T03:55:11.900Z,99676.50
2022-08-17T03:57:40.782Z,99689.56
2022-08-17T04:00:11.888Z,99688.09
2022-08-17T04:02:40.568Z,99686.81
2022-08-17T04:05:09.612Z,99680.16
2022-08-17T04:07:37.902Z,99689.84
2022-08-17T04:10:07.017Z,99682.97
2022-08-17T04:12:43.921Z,99685.00
2022-08-17T04:15:14.313Z,99685.41
2022-08-17T04:17:44.347Z,99685.34
2022-08-17T04:20:13.537Z,99680.31
2022-08-17T04:22:56.281Z,99692.75
2022-08-17T04:25:25.782Z,99684.03
2022-08-17T04:27:54.214Z,99688.94
2022-08-17T04:30:24.311Z,99681.69
2022-08-17T04:33:10.940Z,99677.28
2022-08-17T04:35:42.268Z,99671.06
2022-08-17T04:38:14.353Z,99683.63
2022-08-17T04:41:00.197Z,99686.69
2022-08-17T04:43:31.041Z,99684.59
2022-08-17T04:46:02.026Z,99685.19
2022-08-17T04:48:36.063Z,99675.88
2022-08-17T04:51:10.128Z,99667.09
2022-08-17T04:53:40.196Z,99668.81
2022-08-17T04:56:11.823Z,99667.16
2022-08-17T04:58:46.704Z,99671.50
2022-08-17T05:01:19.052Z,99676.88
2022-08-17T05:03:53.135Z,99659.09
2022-08-17T05:06:21.759Z,99676.06
2022-08-17T05:08:50.115Z,99669.84
2022-08-17T05:11:19.012Z,99662.00
2022-08-17T05:13:50.396Z,99658.28
2022-08-17T05:16:21.753Z,99656.63
2022-08-17T05:18:50.760Z,99656.63
2022-08-17T05:21:18.880Z,99653.78
2022-08-17T05:23:54.942Z,99656.63
2022-08-17T05:26:26.839Z,99653.25
2022-08-17T05:29:02.578Z,99658.19
2022-08-17T05:31:33.125Z,99654.22
2022-08-17T05:34:01.696Z,99657.75
2022-08-17T05:36:42.632Z,99663.13
2022-08-17T05:39:16.424Z,99661.84
2022-08-17T05:41:47.859Z,99664.75
2022-08-17T05:44:17.237Z,99657.75
2022-08-17T05:46:50.251Z,99666.41
2022-08-17T05:49:23.141Z,99675.09
2022-08-17T05:52:20.075Z,99665.97
2022-08-17T05:55:04.442Z,99665.72
2022-08-17T05:57:53.348Z,99671.00
2022-08-17T06:00:30.107Z,99668.97
2022-08-17T06:03:36.928Z,99671.00
2022-08-17T06:06:25.290Z,99672.84
2022-08-17T06:09:21.190Z,99671.22
2022-08-17T06:11:58.794Z,99671.88
2022-08-17T06:14:41.135Z,99674.34
2022-08-17T06:17:12.937Z,99676.38
2022-08-17T06:19:45.225Z,99669.09
2022-08-17T06:22:21.189Z,99675.94
2022-08-17T06:24:56.880Z,99672.25
2022-08-17T06:27:32.936Z,99674.25
2022-08-17T06:30:09.454Z,99675.09
2022-08-17T06:32:40.796Z,99674.03
2022-08-17T06:35:12.077Z,99683.84
2022-08-17T06:38:00.424Z,99675.25
2022-08-17T06:40:49.411Z,99672.63
2022-08-17T06:43:24.278Z,99669.34
2022-08-17T06:46:00.336Z,99677.84
2022-08-17T06:48:36.217Z,99677.63
2022-08-17T06:51:12.360Z,99673.66
2022-08-17T06:53:46.705Z,99679.88
2022-08-17T06:56:25.060Z,99682.81
2022-08-17T06:59:19.673Z,99678.25
2022-08-17T07:01:52.281Z,99689.03
2022-08-17T07:04:24.452Z,99681.06
2022-08-17T07:06:58.369Z,99683.19
2022-08-17T07:09:32.482Z,99680.28
2022-08-17T07:12:10.082Z,99682.44
2022-08-17T07:14:44.559Z,99682.00
2022-08-17T07:17:15.626Z,99678.25
2022-08-17T07:19:47.448Z,99677.81
2022-08-17T07:22:23.845Z,99683.63
2022-08-17T07:24:58.542Z,99685.72
2022-08-17T07:27:31.163Z,99692.16
2022-08-17T07:30:10.600Z,99681.75
2022-08-17T07:32:44.108Z,99688.19
2022-08-17T07:35:17.097Z,99692.16
2022-08-17T07:37:53.317Z,99691.28
2022-08-17T07:40:36.020Z,99694.53
2022-08-17T07:43:21.895Z,99711.38
2022-08-17T07:46:19.098Z,99683.19
2022-08-17T07:48:50.365Z,99681.06
2022-08-17T07:51:26.253Z,99681.69
2022-08-17T07:54:13.180Z,99676.31
2022-08-17T07:56:46.485Z,99677.13
2022-08-17T07:59:18.206Z,99676.06
2022-08-17T08:02:03.700Z,99673.16
2022-08-17T08:04:59.355Z,99664.47
2022-08-17T08:07:32.088Z,99660.97
2022-08-17T08:10:11.221Z,99659.91
2022-08-17T08:12:43.054Z,99655.59
2022-08-17T08:15:18.958Z,99661.56
2022-08-17T08:17:52.261Z,99657.81
2022-08-17T08:20:52.168Z,99663.41
2022-08-17T08:23:18.839Z,99657.00
2022-08-17T08:25:57.650Z,99653.25
2022-08-17T08:28:35.734Z,99646.22
2022-08-17T08:31:24.523Z,99647.03
2022-08-17T08:34:05.573Z,99640.84
2022-08-17T08:37:02.464Z,99647.03
2022-08-17T08:39:44.095Z,99648.69
2022-08-17T08:42:23.777Z,99644.94
2022-08-17T08:45:06.815Z,99640.59
2022-08-17T08:47:53.355Z,99637.69
2022-08-17T08:50:38.296Z,99639.56
2022-08-17T08:53:24.196Z,99635.00
2022-08-17T08:55:56.690Z,99633.31
2022-08-17T08:58:41.685Z,99627.94
2022-08-17T09:01:22.205Z,99628.78
2022-08-17T09:04:24.734Z,99632.88
2022-08-17T09:07:06.267Z,99628.78
2022-08-17T09:09:46.806Z,99635.00
2022-08-17T09:12:22.929Z,99635.00
2022-08-17T09:14:55.839Z,99626.91
2022-08-17T09:17:36.863Z,99633.09
2022-08-17T09:20:27.131Z,99629.59
2022-08-17T09:23:02.894Z,99630.41
2022-08-17T09:25:36.335Z,99639.56
2022-08-17T09:28:08.316Z,99637.69
2022-08-17T09:30:43.355Z,99643.66
2022-08-17T09:33:17.162Z,99637.47
2022-08-17T09:35:50.765Z,99639.09
2022-08-17T09:38:32.148Z,99643.66
2022-08-17T09:41:10.183Z,99643.66
2022-08-17T09:43:45.999Z,99651.75
2022-08-17T09:46:21.045Z,99650.69
2022-08-17T09:48:58.139Z,99640.97
2022-08-17T09:51:34.114Z,99650.69
2022-08-17T09:54:34.901Z,99654.44
2022-08-17T09:57:28.042Z,99659.59
2022-08-17T10:00:02.617Z,99663.34
2022-08-17T10:03:05.269Z,99662.06
2022-08-17T10:05:41.455Z,99667.69
2022-08-17T10:08:21.580Z,99666.84
2022-08-17T10:11:00.207Z,99664.16
2022-08-17T10:13:37.318Z,99661.47
2022-08-17T10:16:15.392Z,99665.00
2022-08-17T10:18:52.939Z,99661.47
2022-08-17T10:21:42.494Z,99656.91
2022-08-17T10:24:37.415Z,99657.75
2022-08-17T10:27:10.366Z,99656.91
2022-08-17T10:29:48.433Z,99657.75
2022-08-17T10:32:27.856Z,99649.66
2022-08-17T10:35:26.082Z,99647.53
2022-08-17T10:38:38.647Z,99648.59
2022-08-17T10:41:21.978Z,99646.75
2022-08-17T10:44:38.381Z,99646.97
2022-08-17T10:47:01.975Z,99639.69
2022-08-17T10:49:34.344Z,99636.19
2022-08-17T10:52:05.383Z,99632.44
2022-08-17T10:54:41.065Z,99639.47
2022-08-17T10:57:36.506Z,99635.72
2022-08-17T11:00:15.199Z,99623.28
2022-08-17T11:02:51.230Z,99627.03
2022-08-17T11:05:43.694Z,99625.97
2022-08-17T11:08:49.317Z,99623.06
2022-08-17T11:11:50.072Z,99627.03
2022-08-17T11:14:35.002Z,99625.19
2022-08-17T11:17:16.680Z,99619.56
2022-08-17T11:20:14.258Z,99615.81
2022-08-17T11:23:14.844Z,99622.03
2022-08-17T11:25:48.525Z,99609.81
2022-08-17T11:28:22.327Z,99608.78
2022-08-17T11:30:54.257Z,99605.03
2022-08-17T11:33:55.167Z,99602.13
2022-08-17T11:36:52.998Z,99595.88
2022-08-17T11:39:42.081Z,99601.72
2022-08-17T11:42:26.666Z,99596.94
2022-08-17T11:44:59.167Z,99599.66
2022-08-17T11:48:26.749Z,99601.28
2022-08-17T11:51:16.475Z,99599.66
2022-08-17T11:56:54.369Z,99598.00
2022-08-17T11:59:59.785Z,99600.25
2022-08-17T12:02:43.334Z,99596.13
2022-08-17T12:05:44.237Z,99593.19
2022-08-17T12:08:18.597Z,99588.88
2022-08-17T12:11:03.323Z,99596.50
2022-08-17T12:13:39.483Z,99592.41
2022-08-17T12:16:14.956Z,99597.56
2022-08-17T12:18:50.986Z,99592.16
2022-08-17T12:21:29.532Z,99582.19
2022-08-17T12:24:06.698Z,99589.47
2022-08-17T12:26:37.255Z,99588.41
2022-08-17T12:29:09.428Z,99592.16
2022-08-17T12:31:50.470Z,99588.41
2022-08-17T12:34:20.835Z,99588.41
2022-08-17T12:36:52.358Z,99583.03
2022-08-17T12:39:25.092Z,99582.19
2022-08-17T12:42:02.136Z,99581.38
2022-08-17T12:44:33.601Z,99577.63
2022-08-17T12:47:09.773Z,99566.84
2022-08-17T12:49:41.048Z,99576.81
2022-08-17T12:52:23.775Z,99571.19
2022-08-17T12:54:59.515Z,99572.25
2022-08-17T12:57:32.877Z,99572.25
2022-08-17T13:00:03.906Z,99568.50
2022-08-17T13:02:42.723Z,99560.41
2022-08-17T13:05:29.082Z,99562.03
2022-08-17T13:07:59.744Z,99560.63
2022-08-17T13:10:33.175Z,99568.50
2022-08-17T13:13:05.457Z,99568.50
2022-08-17T13:15:38.578Z,99568.50
2022-08-17T13:18:39.075Z,99571.78
2022-08-17T13:21:12.366Z,99568.50
2022-08-17T13:23:48.837Z,99573.88
2022-08-17T13:26:29.566Z,99582.56
2022-08-17T13:28:58.568Z,99580.91
2022-08-17T13:31:51.926Z,99577.19
2022-08-17T13:34:38.108Z,99578.81
2022-08-17T13:37:32.777Z,99581.75
2022-08-17T13:40:05.845Z,99575.53
2022-08-17T13:42:48.137Z,99579.28
2022-08-17T13:45:44.799Z,99580.69
2022-08-17T13:48:21.908Z,99579.88
2022-08-17T13:51:21.148Z,99584.22
2022-08-17T13:53:57.930Z,99585.28
2022-08-17T13:56:33.404Z,99586.06
2022-08-17T13:59:09.860Z,99588.78
2022-08-17T14:01:40.749Z,99582.81
2022-08-17T14:04:12.301Z,99583.38
2022-08-17T14:06:53.111Z,99578.81
2022-08-17T14:09:25.747Z,99580.69
2022-08-17T14:11:56.157Z,99579.66
2022-08-17T14:14:24.902Z,99581.50
2022-08-17T14:16:54.091Z,99575.06
2022-08-17T14:19:23.104Z,99577.75
2022-08-17T14:21:59.019Z,99571.78
2022-08-17T14:24:29.858Z,99568.50
2022-08-17T14:26:59.014Z,99569.91
2022-08-17T14:29:30.271Z,99570.72
2022-08-17T14:32:08.111Z,99569.69
2022-08-17T14:34:36.463Z,99568.03
2022-08-17T14:37:06.162Z,99566.94
2022-08-17T14:39:34.554Z,99567.44
2022-08-17T14:42:03.059Z,99569.06
2022-08-17T14:44:31.406Z,99570.25
2022-08-17T14:46:59.828Z,99569.91
2022-08-17T14:49:28.238Z,99574.69
2022-08-17T14:51:56.591Z,99569.75
2022-08-17T14:54:32.704Z,99574.09
2022-08-17T14:57:17.717Z,99569.16
2022-08-17T14:59:54.562Z,99568.81
2022-08-17T15:02:30.046Z,99562.94
2022-08-17T15:05:48.734Z,99568.34
2022-08-17T15:08:18.032Z,99573.28
2022-08-17T15:10:46.667Z,99563.31
2022-08-17T15:13:20.046Z,99559.56
2022-08-17T15:15:48.766Z,99560.38
2022-08-17T15:18:17.698Z,99569.53
2022-08-17T15:20:49.220Z,99566.59
2022-08-17T15:23:21.596Z,99560.38
2022-08-17T15:25:52.741Z,99565.41
2022-08-17T15:28:22.957Z,99565.78
2022-08-17T15:30:52.454Z,99555.81
2022-08-17T15:33:24.011Z,99562.28
2022-08-17T15:35:54.630Z,99556.28
2022-08-17T15:38:23.622Z,99559.19
2022-08-17T15:40:53.190Z,99557.56
2022-08-17T15:43:27.714Z,99570.44
2022-08-17T15:46:01.347Z,99564.25
2022-08-17T15:48:41.615Z,99567.16
2022-08-17T15:51:14.420Z,99572.75
2022-08-17T15:53:44.238Z,99565.94
2022-08-17T15:56:13.834Z,99572.16
2022-08-17T15:58:43.793Z,99581.50
2022-08-17T16:01:14.658Z,99578.75
2022-08-17T16:04:03.905Z,99576.06
2022-08-17T16:06:35.238Z,99586.03
2022-08-17T16:09:03.665Z,99595.75
2022-08-17T16:11:32.010Z,99603.22
2022-08-17T16:14:00.430Z,99600.53
2022-08-17T16:16:29.586Z,99601.56
2022-08-17T16:18:58.751Z,99610.72
2022-08-17T16:21:31.163Z,99608.25
2022-08-17T16:24:13.203Z,99615.50
2022-08-17T16:26:42.571Z,99619.25
2022-08-17T16:29:10.971Z,99624.03
2022-08-17T16:31:39.461Z,99634.81
2022-08-17T16:34:18.025Z,99634.81
2022-08-17T16:36:55.128Z,99636.91
2022-08-17T16:39:27.777Z,99642.31
2022-08-17T16:41:56.636Z,99647.09
2022-08-17T16:44:26.294Z,99652.13
2022-08-17T16:46:54.674Z,99653.53
2022-08-17T16:49:35.657Z,99653.44
2022-08-17T16:52:10.365Z,99652.03
2022-08-17T16:54:43.937Z,99657.41
2022-08-17T16:57:13.282Z,99651.47
2022-08-17T16:59:44.871Z,99655.19
2022-08-17T17:02:17.377Z,99660.13
2022-08-17T17:04:53.382Z,99653.91
2022-08-17T17:07:37.597Z,99653.09
2022-08-17T17:10:11.969Z,99649.78
2022-08-17T17:13:02.418Z,99657.88
2022-08-17T17:15:47.388Z,99654.59
2022-08-17T17:18:17.919Z,99655.63
2022-08-17T17:20:53.637Z,99653.53
2022-08-17T17:23:35.281Z,99657.28
2022-08-17T17:26:17.622Z,99653.53
2022-08-17T17:29:01.170Z,99653.53
2022-08-17T17:31:39.305Z,99651.69
2022-08-17T17:34:11.439Z,99637.81
2022-08-17T17:36:43.251Z,99649.22
2022-08-17T17:39:16.833Z,99642.97
2022-08-17T17:41:50.399Z,99644.84
2022-08-17T17:44:25.645Z,99632.44
2022-08-17T17:46:57.712Z,99628.69
2022-08-17T17:49:29.866Z,99641.13
2022-08-17T17:52:13.179Z,99636.53
2022-08-17T17:54:58.687Z,99638.44
2022-08-17T17:57:39.532Z,99640.28
2022-08-17T18:00:14.041Z,99643.44
2022-08-17T18:02:54.273Z,99637.81
2022-08-17T18:05:40.778Z,99639.09
2022-08-17T18:08:21.407Z,99636.63
2022-08-17T18:11:12.988Z,99643.66
2022-08-17T18:14:05.012Z,99638.44
2022-08-17T18:16:35.241Z,99634.06
2022-08-17T18:19:03.795Z,99636.63
2022-08-17T18:21:39.325Z,99634.16
2022-08-17T18:24:10.700Z,99626.09
2022-08-17T18:26:55.100Z,99628.31
2022-08-17T18:29:42.189Z,99630.84
2022-08-17T18:32:38.032Z,99645.28
2022-08-17T18:35:31.145Z,99640.38
2022-08-17T18:38:20.585Z,99644.72
2022-08-17T18:40:59.782Z,99642.47
2022-08-17T18:43:43.834Z,99640.84
2022-08-17T18:46:29.621Z,99630.06
2022-08-17T18:49:00.667Z,99628.38
2022-08-17T18:51:41.520Z,99626.16
2022-08-17T18:54:18.254Z,99619.13
2022-08-17T18:56:55.284Z,99622.41
2022-08-17T18:59:36.205Z,99632.13
2022-08-17T19:02:39.126Z,99637.53
2022-08-17T19:05:26.629Z,99630.50
2022-08-17T19:07:55.817Z,99630.84
2022-08-17T19:10:28.793Z,99630.06
2022-08-17T19:13:12.603Z,99626.75
2022-08-17T19:15:46.941Z,99631.69
2022-08-17T19:18:43.025Z,99639.16
2022-08-17T19:21:16.584Z,99635.00
2022-08-17T19:23:54.249Z,99636.94
2022-08-17T19:26:54.747Z,99639.66
2022-08-17T19:29:22.178Z,99641.13
2022-08-17T19:31:51.670Z,99642.91
2022-08-17T19:34:33.175Z,99637.53
2022-08-17T19:37:09.054Z,99637.53
2022-08-17T19:39:47.818Z,99637.63
2022-08-17T19:42:28.659Z,99636.78
2022-08-17T19:45:05.541Z,99637.22
2022-08-17T19:48:04.563Z,99634.53
2022-08-17T19:50:41.656Z,99629.16
2022-08-17T19:53:21.607Z,99640.97
2022-08-17T19:56:07.348Z,99644.72
2022-08-17T19:58:48.396Z,99647.19
2022-08-17T20:01:24.085Z,99649.06
2022-08-17T20:03:58.285Z,99648.00
2022-08-17T20:06:32.538Z,99649.06
2022-08-17T20:09:10.550Z,99642.63
2022-08-17T20:11:48.167Z,99646.81
2022-08-17T20:14:21.796Z,99649.72
2022-08-17T20:16:50.449Z,99647.25
2022-08-17T20:19:25.298Z,99654.31
2022-08-17T20:22:00.669Z,99652.19
2022-08-17T20:24:36.610Z,99654.75
2022-08-17T20:27:16.396Z,99661.78
2022-08-17T20:30:07.778Z,99667.53
2022-08-17T20:32:52.036Z,99661.78
2022-08-17T20:35:25.275Z,99661.78
2022-08-17T20:37:58.768Z,99658.03
2022-08-17T20:40:34.188Z,99653.94
2022-08-17T20:43:52.192Z,99643.97
2022-08-17T20:46:29.305Z,99646.50
2022-08-17T20:49:01.873Z,99638.59
2022-08-17T20:51:38.645Z,99636.56
2022-08-17T20:54:29.376Z,99642.63
2022-08-17T20:57:01.096Z,99644.25
2022-08-17T21:00:14.149Z,99642.78
2022-08-17T21:02:44.914Z,99635.81
2022-08-17T21:05:37.608Z,99643.25
2022-08-17T21:08:15.612Z,99645.75
2022-08-17T21:10:47.371Z,99646.38
2022-08-17T21:13:41.580Z,99646.38
2022-08-17T21:16:31.452Z,99642.84
2022-08-17T21:19:12.581Z,99645.31
2022-08-17T21:21:50.380Z,99646.81
2022-08-17T21:24:34.354Z,99649.06
2022-08-17T21:27:19.266Z,99645.16
2022-08-17T21:30:13.905Z,99640.38
2022-08-17T21:32:44.545Z,99642.44
2022-08-17T21:35:25.786Z,99642.00
2022-08-17T21:38:00.106Z,99639.31
2022-08-17T21:40:31.046Z,99641.22
2022-08-17T21:43:08.441Z,99630.66
2022-08-17T21:45:39.342Z,99625.47
2022-08-17T21:48:14.016Z,99617.19
2022-08-17T21:50:45.366Z,99620.91
2022-08-17T21:53:24.824Z,99616.13
2022-08-17T21:55:55.694Z,99612.84
2022-08-17T21:58:40.421Z,99617.38
2022-08-17T22:01:21.009Z,99616.78
2022-08-17T22:03:57.698Z,99610.59
2022-08-17T22:06:29.044Z,99615.13
2022-08-17T22:09:15.060Z,99604.00
2022-08-17T22:11:59.156Z,99613.72
2022-08-17T22:14:52.607Z,99621.81
2022-08-17T22:17:24.247Z,99623.13
2022-08-17T22:19:56.445Z,99632.25
2022-08-17T22:22:35.562Z,99630.63
2022-08-17T22:25:05.881Z,99631.66
2022-08-17T22:27:50.847Z,99633.53
2022-08-17T22:30:29.127Z,99633.91
2022-08-17T22:32:58.280Z,99633.75
2022-08-17T22:35:28.673Z,99631.50
2022-08-17T22:37:57.272Z,99639.34
2022-08-17T22:40:30.577Z,99634.34
2022-08-17T22:43:00.140Z,99627.94
2022-08-17T22:45:31.301Z,99626.72
2022-08-17T22:48:02.195Z,99628.59
2022-08-17T22:50:33.397Z,99617.81
2022-08-17T22:53:20.723Z,99614.97
2022-08-17T22:56:11.527Z,99616.22
2022-08-17T22:59:02.950Z,99616.22
2022-08-17T23:01:35.613Z,99623.28
2022-08-17T23:04:07.114Z,99615.66
2022-08-17T23:06:37.457Z,99619.53
2022-08-17T23:09:07.429Z,99623.50
2022-08-17T23:11:48.642Z,99622.66
2022-08-17T23:14:20.611Z,99624.91
2022-08-17T23:16:51.380Z,99619.53
2022-08-17T23:19:21.795Z,99617.91
2022-08-17T23:21:51.144Z,99615.44
2022-08-17T23:24:24.138Z,99621.19
2022-08-17T23:26:52.933Z,99619.75
2022-08-17T23:29:22.686Z,99622.66
2022-08-17T23:31:53.630Z,99626.19
2022-08-17T23:34:23.259Z,99624.16
2022-08-17T23:36:53.240Z,99630.13
2022-08-17T23:39:24.745Z,99622.97
2022-08-17T23:41:57.393Z,99625.66
2022-08-17T23:44:26.006Z,99631.03
2022-08-17T23:46:56.357Z,99620.41
2022-08-17T23:49:25.286Z,99627.28
2022-08-17T23:51:55.347Z,99623.41
2022-08-17T23:54:28.363Z,99623.97
2022-08-17T23:56:56.720Z,99634.38
2022-08-17T23:59:27.072Z,99640.81
